Jollyville, Texas
Current Conditions -  °F | °C
As of 7:51 PM on Saturday 20 Dec 2014 (Local Time) from KATT Reporting Station
Overcast Overcast  
Wind Chill: 51°   Ceiling: 2700
Heat Index: 51°   Visibility: 7mi
Dew Point: 46°   Wind: 3mph
Humidity: 83%   Direction: NA
Pressure: 30.19"   Gusts: NA
Location:  30.44°N, 97.77°W
Report Text: KATT 210151Z AUTO VRB03KT 7SM OVC027 11/08 A3019 RMK AO2 SLP224 T01060078
Loading
Personal Weather Stations






























Interactive Weather Map New forecast layout! Learn more

10-Day Weather Forecast

Advertisements
Track Severe Weather on mobile